Time;durP1;ratioP1;P1;durP2;ratioP2;P2;SDS_P1;SDS_P2;PMS_P1;PMS_P2;Temp;Humidity;BMP_temperature;BMP_pressure;BME280_temperature;BME280_humidity;BME280_pressure;Samples;Min_cycle;Max_cycle;Signal;HPM_P1;HPM_P2
2021/09/11 00:01:29;;;;;;;;;31.50;31.00;;;;;19.74;66.47;101364.28;6291100;22;44690;-93
2021/09/11 00:07:02;;;;;;;;;9.50;9.00;;;;;19.68;66.36;101360.28;6328754;22;46782;-94
2021/09/11 00:09:29;;;;;;;;;25.00;25.00;;;;;19.75;67.59;101382.16;6288874;22;44778;-96
2021/09/11 00:12:09;;;;;;;;;33.75;32.00;;;;;19.69;67.15;101375.47;6278501;22;44797;-95
2021/09/11 00:14:54;;;;;;;;;27.50;26.50;;;;;19.70;66.94;101370.94;6277165;22;44807;-95
2021/09/11 00:20:15;;;;;;;;;35.25;33.50;;;;;19.62;65.47;101355.44;6329724;22;44798;-94
2021/09/11 00:22:48;;;;;;;;;18.50;18.50;;;;;19.57;66.95;101342.38;6325000;22;44768;-94
2021/09/11 00:25:16;;;;;;;;;40.00;36.50;;;;;19.77;66.43;101372.13;6302501;22;44741;-94
2021/09/11 00:27:49;;;;;;;;;25.50;25.50;;;;;19.84;66.88;101381.38;6300019;22;45093;-94
2021/09/11 00:30:17;;;;;;;;;36.50;33.50;;;;;19.75;66.37;101364.16;6300906;22;44843;-94
2021/09/11 00:32:55;;;;;;;;;14.50;14.50;;;;;19.73;66.97;101346.41;6303080;22;44734;-95
2021/09/11 00:35:28;;;;;;;;;30.50;29.50;;;;;19.87;65.51;101369.44;6297688;22;44791;-94
2021/09/11 00:38:04;;;;;;;;;23.00;23.00;;;;;19.86;66.45;101382.06;6326487;22;45583;-94
2021/09/11 00:40:34;;;;;;;;;26.00;26.00;;;;;19.73;66.15;101357.19;6301029;22;44810;-94
2021/09/11 00:43:03;;;;;;;;;41.25;35.25;;;;;19.72;65.12;101363.59;6326249;22;44716;-94
2021/09/11 00:45:29;;;;;;;;;33.50;32.75;;;;;19.67;67.13;101355.91;6279386;22;44891;-94
2021/09/11 00:48:04;;;;;;;;;24.00;23.00;;;;;19.72;66.52;101361.72;6276897;22;45382;-95
2021/09/11 00:50:50;;;;;;;;;32.50;31.75;;;;;19.68;65.16;101354.03;6299543;22;44915;-95
2021/09/11 00:53:25;;;;;;;;;15.75;15.75;;;;;19.75;65.59;101363.28;6273885;22;44716;-95
2021/09/11 00:56:15;;;;;;;;;27.00;24.33;;;;;19.74;64.42;101375.09;6301195;22;44829;-95
2021/09/11 00:58:44;;;;;;;;;22.25;22.25;;;;;19.66;65.52;101364.94;6300403;22;45080;-95
2021/09/11 01:01:18;;;;;;;;;23.25;23.25;;;;;19.68;66.06;101376.47;6272365;22;44823;-94
2021/09/11 01:04:04;;;;;;;;;23.50;23.50;;;;;19.68;65.45;101386.41;6303818;22;44756;-94
2021/09/11 01:06:44;;;;;;;;;24.75;24.75;;;;;19.56;65.69;101367.63;6302194;22;44927;-95
2021/09/11 01:09:24;;;;;;;;;31.00;30.33;;;;;19.50;65.05;101365.47;6330800;22;45171;-95
2021/09/11 01:12:15;;;;;;;;;29.00;29.00;;;;;19.62;64.27;101385.09;6302243;22;44701;-96
2021/09/11 01:19:57;;;;;;;;;33.25;31.75;;;;;19.48;65.53;101379.09;6299833;22;45701;-94
2021/09/11 01:22:23;;;;;;;;;29.75;29.75;;;;;19.44;66.30;101372.28;6297656;22;44842;-95
2021/09/11 01:25:04;;;;;;;;;30.75;30.50;;;;;19.36;64.75;101364.84;6245150;22;44592;-94
2021/09/11 01:28:12;;;;;;;;;32.50;31.50;;;;;19.49;64.95;101396.09;6297919;22;44729;-95
2021/09/11 01:31:16;;;;;;;;;27.75;27.75;;;;;19.30;64.90;101368.06;6299407;22;45123;-93
2021/09/11 01:33:51;;;;;;;;;17.25;17.25;;;;;19.41;64.90;101399.50;6273857;22;44866;-94
2021/09/11 01:36:31;;;;;;;;;34.25;32.50;;;;;19.28;65.69;101388.06;6301039;22;44811;-95
2021/09/11 01:39:13;;;;;;;;;26.75;26.25;;;;;19.10;65.43;101370.63;6275576;22;45052;-93
2021/09/11 01:41:50;;;;;;;;;18.00;18.00;;;;;19.26;65.26;101404.34;6269960;22;45062;-94
2021/09/11 01:45:14;;;;;;;;;19.50;19.50;;;;;19.17;65.26;101411.38;6244605;22;44811;-96
2021/09/11 01:48:29;;;;;;;;;34.50;33.50;;;;;19.03;65.61;101387.41;6252673;22;44709;-96
2021/09/11 01:51:46;;;;;;;;;18.25;18.25;;;;;18.97;64.92;101389.66;6170203;23;44812;-96
2021/09/11 01:57:07;;;;;;;;;44.50;38.25;;;;;19.02;65.67;101412.66;6229913;22;45810;-90
2021/09/11 01:59:33;;;;;;;;;35.50;33.50;;;;;18.56;65.56;101334.75;6288883;22;44904;-89
2021/09/11 02:01:59;;;;;;;;;15.50;15.50;;;;;18.97;65.52;101394.19;6261715;22;44750;-89
2021/09/11 02:04:24;;;;;;;;;24.75;24.75;;;;;18.70;65.25;101361.38;6264091;22;44872;-89
2021/09/11 02:06:50;;;;;;;;;;;;;;;18.93;65.66;101390.91;6267784;22;44716;-89
2021/09/11 02:09:16;;;;;;;;;36.50;33.50;;;;;18.94;65.31;101395.31;6315067;22;44750;-89
2021/09/11 02:11:41;;;;;;;;;21.00;21.00;;;;;18.94;64.47;101397.13;6262753;22;45244;-88
2021/09/11 02:14:07;;;;;;;;;26.50;26.50;;;;;18.60;65.18;101353.22;6265227;22;45410;-90
2021/09/11 02:16:32;;;;;;;;;35.25;33.25;;;;;18.60;65.56;101350.53;6266100;22;44659;-90
2021/09/11 02:18:59;;;;;;;;;26.00;25.00;;;;;18.95;65.05;101412.34;6266753;22;44839;-90
2021/09/11 02:21:24;;;;;;;;;17.50;15.25;;;;;18.69;66.03;101367.75;6266606;22;44805;-89
2021/09/11 02:23:50;;;;;;;;;15.00;15.00;;;;;18.74;65.41;101372.75;6292136;22;44870;-89
2021/09/11 02:26:16;;;;;;;;;16.50;14.50;;;;;18.69;65.55;101370.44;6266333;22;44787;-89
2021/09/11 02:28:43;;;;;;;;;20.50;19.00;;;;;18.61;65.36;101346.88;6272469;22;44727;-89
2021/09/11 02:31:09;;;;;;;;;32.50;28.75;;;;;18.71;66.10;101359.53;6284177;22;44786;-89
2021/09/11 02:33:35;;;;;;;;;25.25;25.25;;;;;18.86;65.22;101387.88;6278093;22;45369;-89
2021/09/11 02:36:00;;;;;;;;;25.25;25.25;;;;;18.69;65.17;101358.81;6270856;22;44689;-89
2021/09/11 02:38:26;;;;;;;;;33.00;32.50;;;;;18.97;65.04;101394.19;6262764;22;44694;-90
2021/09/11 02:40:53;;;;;;;;;23.00;22.75;;;;;18.66;65.19;101348.31;6261652;22;44915;-90
2021/09/11 02:43:19;;;;;;;;;29.00;29.00;;;;;18.78;65.29;101359.88;6276827;22;45521;-88
2021/09/11 02:45:46;;;;;;;;;23.50;23.50;;;;;18.58;64.65;101322.00;6305075;22;44712;-89
2021/09/11 02:48:11;;;;;;;;;14.00;14.00;;;;;18.73;65.33;101355.72;6298249;22;44712;-90
2021/09/11 02:50:37;;;;;;;;;39.75;36.25;;;;;18.61;65.05;101337.91;6268397;22;44707;-90
2021/09/11 02:53:03;;;;;;;;;32.50;32.00;;;;;18.74;64.77;101360.16;6270882;22;44977;-89
2021/09/11 02:55:28;;;;;;;;;39.75;35.00;;;;;19.02;65.39;101396.50;6294936;22;44795;-89
2021/09/11 02:57:54;;;;;;;;;21.75;19.50;;;;;18.59;64.71;101324.56;6266270;22;44741;-88
2021/09/11 03:00:20;;;;;;;;;31.00;31.00;;;;;18.73;64.16;101347.66;6267837;22;44757;-89
2021/09/11 03:02:46;;;;;;;;;22.00;20.00;;;;;18.61;64.66;101332.53;6294328;22;44966;-90
2021/09/11 03:05:11;;;;;;;;;31.25;30.50;;;;;18.44;64.48;101310.56;6268562;22;44678;-89
2021/09/11 03:07:37;;;;;;;;;26.50;26.50;;;;;18.85;63.20;101386.16;6269458;22;44742;-89
2021/09/11 03:10:02;;;;;;;;;40.50;36.75;;;;;18.52;64.22;101338.69;6267504;22;44795;-89
2021/09/11 03:12:30;;;;;;;;;17.75;17.75;;;;;18.61;63.69;101363.03;6268793;22;45061;-88
2021/09/11 03:14:55;;;;;;;;;36.50;33.75;;;;;18.66;64.63;101369.84;6268070;22;44997;-89
2021/09/11 03:17:21;;;;;;;;;30.50;29.75;;;;;18.51;64.74;101354.00;6265454;22;44774;-89
2021/09/11 03:19:47;;;;;;;;;21.25;19.75;;;;;18.71;64.39;101379.25;6271709;22;44790;-89
2021/09/11 03:22:12;;;;;;;;;35.25;32.50;;;;;18.73;64.67;101387.22;6302734;22;45115;-88
2021/09/11 03:24:38;;;;;;;;;22.50;22.50;;;;;18.43;65.20;101351.94;6272495;22;44604;-89
2021/09/11 03:27:03;;;;;;;;;29.50;29.50;;;;;18.55;63.93;101376.13;6275742;22;44664;-90
2021/09/11 03:29:29;;;;;;;;;25.00;25.00;;;;;18.52;64.80;101385.31;6301440;22;44860;-88
2021/09/11 03:31:54;;;;;;;;;13.00;13.00;;;;;18.34;64.91;101360.78;6277975;22;45147;-88
2021/09/11 03:34:20;;;;;;;;;24.25;23.75;;;;;18.27;65.38;101346.97;6307217;22;44709;-88
2021/09/11 03:36:45;;;;;;;;;30.50;30.50;;;;;18.48;65.87;101376.63;6303268;22;44786;-88
2021/09/11 03:39:11;;;;;;;;;37.50;34.75;;;;;18.32;65.23;101351.97;6296571;22;44734;-89
2021/09/11 03:41:39;;;;;;;;;30.50;30.50;;;;;18.53;65.67;101386.19;6265940;22;45057;-90
2021/09/11 03:44:05;;;;;;;;;38.00;34.67;;;;;18.42;64.92;101373.59;6291575;22;44690;-90
2021/09/11 03:46:30;;;;;;;;;36.00;33.00;;;;;18.28;65.70;101347.81;6299771;22;44822;-89
2021/09/11 03:48:56;;;;;;;;;9.50;8.50;;;;;18.22;65.41;101341.94;6274688;22;44941;-90
2021/09/11 03:51:21;;;;;;;;;28.25;28.25;;;;;18.49;64.62;101385.56;6278501;22;44911;-91
2021/09/11 03:53:47;;;;;;;;;29.50;29.50;;;;;18.41;65.36;101379.97;6280423;22;44742;-89
2021/09/11 03:56:12;;;;;;;;;24.75;24.75;;;;;18.50;65.39;101403.41;6280100;22;44771;-89
2021/09/11 03:58:38;;;;;;;;;26.00;26.00;;;;;18.39;65.20;101398.94;6297895;22;44844;-89
2021/09/11 04:01:04;;;;;;;;;15.50;14.00;;;;;18.20;64.99;101360.09;6320748;22;45556;-90
2021/09/11 04:03:30;;;;;;;;;18.00;16.75;;;;;18.04;65.11;101338.06;6267124;22;44884;-88
2021/09/11 04:05:55;;;;;;;;;28.25;27.25;;;;;18.31;64.83;101388.78;6320580;22;44724;-89
2021/09/11 04:08:21;;;;;;;;;12.00;11.50;;;;;18.10;64.80;101375.25;6295783;22;44828;-89
2021/09/11 04:10:46;;;;;;;;;18.00;17.00;;;;;18.07;64.33;101391.63;6267330;22;45103;-89
2021/09/11 04:13:13;;;;;;;;;34.75;33.25;;;;;17.69;65.60;101340.78;6261982;22;44829;-90
2021/09/11 04:15:38;;;;;;;;;24.00;24.00;;;;;17.75;65.35;101349.34;6267812;22;44750;-90
2021/09/11 04:18:04;;;;;;;;;30.25;30.25;;;;;17.92;65.86;101386.50;6272635;22;44782;-89
2021/09/11 04:20:31;;;;;;;;;39.25;36.25;;;;;17.58;65.52;101332.72;6275949;22;44998;-90
2021/09/11 04:22:57;;;;;;;;;12.25;10.50;;;;;17.99;65.55;101400.34;6279109;22;44767;-90
2021/09/11 04:25:23;;;;;;;;;22.00;22.00;;;;;17.80;65.39;101368.66;6304881;22;44630;-91
2021/09/11 04:27:51;;;;;;;;;33.25;32.50;;;;;18.08;65.91;101414.84;6299805;22;44719;-90
2021/09/11 04:30:16;;;;;;;;;26.50;25.50;;;;;18.08;65.73;101404.09;6296342;22;45452;-90
2021/09/11 04:32:42;;;;;;;;;18.50;18.50;;;;;17.86;65.49;101366.31;6267895;22;44570;-89
2021/09/11 04:35:07;;;;;;;;;20.75;20.75;;;;;17.86;64.55;101378.91;6272132;22;44687;-89
2021/09/11 04:37:33;;;;;;;;;31.00;30.00;;;;;17.64;65.66;101337.63;6272919;22;44858;-89
2021/09/11 04:39:59;;;;;;;;;35.75;34.00;;;;;17.82;64.85;101370.25;6275028;22;45115;-89
2021/09/11 04:42:25;;;;;;;;;38.25;36.00;;;;;17.99;65.91;101401.16;6325102;22;44914;-90
2021/09/11 04:44:50;;;;;;;;;35.75;33.75;;;;;17.82;65.65;101372.94;6297445;22;44742;-90
2021/09/11 04:47:16;;;;;;;;;35.00;33.50;;;;;17.94;65.88;101386.38;6298009;22;44876;-90
2021/09/11 04:49:41;;;;;;;;;25.75;25.75;;;;;18.03;65.63;101409.88;6295046;22;45216;-89
2021/09/11 04:52:07;;;;;;;;;14.75;14.50;;;;;18.08;65.23;101415.72;6295617;22;44810;-90
2021/09/11 04:54:33;;;;;;;;;38.75;35.75;;;;;17.64;65.32;101347.53;6269589;22;44725;-90
2021/09/11 04:56:58;;;;;;;;;23.00;19.75;;;;;17.79;65.12;101375.00;6269654;22;44722;-90
2021/09/11 04:59:25;;;;;;;;;17.50;17.50;;;;;17.76;65.52;101380.66;6269193;22;45147;-89
2021/09/11 05:01:51;;;;;;;;;25.50;25.50;;;;;17.91;65.71;101411.69;6279140;22;44851;-89
2021/09/11 05:04:17;;;;;;;;;15.00;15.00;;;;;17.98;64.87;101418.28;6305359;22;44632;-90
2021/09/11 05:06:43;;;;;;;;;27.00;27.00;;;;;18.01;65.91;101432.47;6271980;22;44746;-90
2021/09/11 05:09:08;;;;;;;;;28.75;28.75;;;;;17.56;66.18;101358.88;6269543;22;47163;-89
2021/09/11 05:11:34;;;;;;;;;29.50;28.00;;;;;17.82;66.43;101397.16;6268622;22;44774;-89
2021/09/11 05:13:59;;;;;;;;;37.25;35.25;;;;;17.71;65.70;101375.63;6267789;22;44722;-89
2021/09/11 05:16:25;;;;;;;;;21.75;21.75;;;;;17.76;66.01;101391.41;6275649;22;44750;-88
2021/09/11 05:18:51;;;;;;;;;26.00;26.00;;;;;17.75;66.12;101390.53;6301959;22;45137;-88
2021/09/11 05:21:16;;;;;;;;;34.75;33.50;;;;;18.01;66.11;101430.63;6269666;22;44754;-89
2021/09/11 05:23:42;;;;;;;;;32.25;31.25;;;;;17.89;66.19;101413.63;6270074;22;44726;-90
2021/09/11 05:26:07;;;;;;;;;40.00;35.50;;;;;17.73;65.71;101379.91;6269414;22;44836;-91
2021/09/11 05:28:33;;;;;;;;;37.50;35.50;;;;;18.04;66.37;101432.22;6271579;22;45405;-90
2021/09/11 05:30:58;;;;;;;;;29.50;29.50;;;;;17.96;66.42;101430.16;6272577;22;44606;-90
2021/09/11 05:33:24;;;;;;;;;42.75;37.25;;;;;18.05;66.26;101439.34;6271141;22;44658;-89
2021/09/11 05:35:49;;;;;;;;;39.75;36.25;;;;;17.58;66.39;101357.75;6269118;22;44758;-89
2021/09/11 05:38:16;;;;;;;;;27.25;26.75;;;;;17.95;66.00;101413.16;6265695;22;45061;-90
2021/09/11 05:40:41;;;;;;;;;27.25;27.25;;;;;17.89;65.67;101410.13;6292066;22;44729;-89
2021/09/11 05:43:08;;;;;;;;;10.75;10.75;;;;;17.72;65.52;101380.03;6271574;22;44610;-89
2021/09/11 05:45:34;;;;;;;;;36.50;34.75;;;;;18.10;65.82;101450.59;6272721;22;44757;-90
2021/09/11 05:48:00;;;;;;;;;45.25;39.75;;;;;17.97;65.31;101418.41;6264356;22;44999;-90
2021/09/11 05:50:25;;;;;;;;;30.25;30.25;;;;;18.10;65.86;101439.84;6290641;22;44980;-90
2021/09/11 05:52:51;;;;;;;;;35.50;33.50;;;;;18.16;65.23;101452.81;6266061;22;44750;-90
2021/09/11 05:55:16;;;;;;;;;20.75;20.50;;;;;18.15;65.31;101453.78;6268180;22;44773;-90
2021/09/11 05:57:42;;;;;;;;;38.00;36.00;;;;;17.98;64.85;101421.00;6267059;22;45155;-90
2021/09/11 06:00:08;;;;;;;;;26.00;26.00;;;;;18.01;64.85;101425.25;6293233;22;44598;-90
2021/09/11 06:02:34;;;;;;;;;39.75;35.75;;;;;18.05;66.04;101431.25;6266333;22;44703;-90
2021/09/11 06:04:59;;;;;;;;;35.75;32.00;;;;;17.78;64.71;101386.75;6264027;22;44869;-90
2021/09/11 06:07:25;;;;;;;;;33.75;32.50;;;;;18.26;65.50;101463.69;6264447;22;46635;-90
2021/09/11 06:09:50;;;;;;;;;35.00;32.00;;;;;18.31;64.97;101469.53;6265102;22;44695;-90
2021/09/11 06:12:16;;;;;;;;;45.00;39.00;;;;;17.96;63.61;101425.63;6264076;22;44756;-90
2021/09/11 06:14:41;;;;;;;;;42.75;38.50;;;;;18.22;64.13;101473.81;6266652;22;44940;-89
2021/09/11 06:17:07;;;;;;;;;42.25;37.00;;;;;17.99;64.46;101438.00;6265194;22;45135;-90
2021/09/11 06:19:37;;;;;;;;;42.50;38.00;;;;;18.10;63.92;101456.00;6264762;22;44750;-91
2021/09/11 06:22:09;;;;;;;;;18.50;18.50;;;;;17.97;64.08;101442.63;6267220;22;44682;-90
2021/09/11 06:24:37;;;;;;;;;;;;;;;18.18;64.53;101493.06;6297174;22;44920;-89
2021/09/11 06:27:04;;;;;;;;;25.00;25.00;;;;;17.83;64.81;101428.44;6320800;22;44983;-90
2021/09/11 06:29:32;;;;;;;;;38.50;35.25;;;;;17.88;63.29;101430.75;6272978;22;44923;-90
2021/09/11 06:31:58;;;;;;;;;29.50;29.50;;;;;18.09;64.54;101444.34;6299289;22;44751;-89
2021/09/11 06:34:23;;;;;;;;;48.50;42.25;;;;;18.07;64.47;101416.69;6269389;22;44773;-89
2021/09/11 06:36:52;;;;;;;;;21.75;21.75;;;;;18.67;63.79;101482.84;6273812;22;45160;-89
2021/09/11 06:39:19;;;;;;;;;25.50;24.50;;;;;18.57;63.28;101453.09;6312502;22;44909;-90
2021/09/11 06:41:44;;;;;;;;;29.00;29.00;;;;;18.40;63.24;101407.88;6285370;22;44605;-91
2021/09/11 06:44:10;;;;;;;;;32.75;32.00;;;;;18.69;63.45;101445.84;6284506;22;44787;-90
2021/09/11 06:46:38;;;;;;;;;24.75;24.75;;;;;18.82;61.76;101469.09;6271209;22;45127;-90
2021/09/11 06:49:04;;;;;;;;;38.75;35.50;;;;;18.61;63.08;101441.13;6268197;22;44943;-90
2021/09/11 06:51:33;;;;;;;;;21.75;21.25;;;;;18.53;62.65;101429.25;6267853;22;44785;-89
2021/09/11 06:54:01;;;;;;;;;34.25;32.25;;;;;18.91;62.42;101483.59;6269356;22;44773;-89
2021/09/11 06:56:27;;;;;;;;;16.50;16.50;;;;;18.98;62.09;101477.59;6264498;22;45568;-91
2021/09/11 06:58:53;;;;;;;;;42.75;38.00;;;;;19.09;62.21;101476.75;6258791;22;44746;-89
2021/09/11 07:01:21;;;;;;;;;32.75;32.00;;;;;19.18;60.58;101475.09;6289915;22;44764;-90
2021/09/11 07:03:49;;;;;;;;;31.00;30.25;;;;;19.42;61.45;101511.75;6279045;22;44878;-91
2021/09/11 07:06:15;;;;;;;;;22.25;20.50;;;;;19.29;61.58;101481.41;6277120;22;45217;-89
2021/09/11 07:08:40;;;;;;;;;44.75;39.00;;;;;19.30;61.35;101483.16;6292099;22;44617;-90
2021/09/11 07:11:14;;;;;;;;;42.00;37.75;;;;;19.26;61.33;101469.06;6265986;22;44757;-90
2021/09/11 07:13:39;;;;;;;;;18.75;18.75;;;;;19.38;60.44;101480.66;6300198;22;44832;-91
2021/09/11 07:16:05;;;;;;;;;17.25;17.00;;;;;19.23;61.46;101462.09;6300379;22;45086;-90
2021/09/11 07:18:31;;;;;;;;;23.50;23.50;;;;;19.30;61.31;101475.88;6293858;22;44710;-89
2021/09/11 07:20:57;;;;;;;;;6.00;6.00;;;;;19.42;60.50;101500.97;6263701;22;44942;-89
2021/09/11 07:23:22;;;;;;;;;30.25;28.75;;;;;19.32;60.19;101478.47;6258022;22;44778;-90
2021/09/11 07:25:50;;;;;;;;;22.50;22.50;;;;;19.60;59.63;101528.19;6257510;22;45285;-91
2021/09/11 07:28:16;;;;;;;;;29.00;25.75;;;;;19.29;58.39;101476.88;6283279;22;44867;-90
2021/09/11 07:30:49;;;;;;;;;35.75;31.75;;;;;19.67;59.44;101519.56;6259600;22;44752;-89
2021/09/11 07:33:22;;;;;;;;;34.75;33.50;;;;;19.46;59.10;101482.66;6275304;22;44697;-89
2021/09/11 07:35:47;;;;;;;;;24.25;24.25;;;;;19.30;58.95;101448.94;6301397;22;45103;-88
2021/09/11 07:38:15;;;;;;;;;33.25;32.25;;;;;19.54;58.79;101482.03;6291807;22;44772;-90
2021/09/11 07:40:44;;;;;;;;;18.25;18.25;;;;;19.56;59.40;101471.97;6284092;22;44670;-89
2021/09/11 07:43:10;;;;;;;;;36.00;33.75;;;;;19.57;59.14;101473.66;6285288;22;44891;-90
2021/09/11 07:45:37;;;;;;;;;24.75;22.75;;;;;19.69;58.22;101496.03;6261254;22;45157;-90
2021/09/11 07:48:03;;;;;;;;;24.00;22.75;;;;;19.48;57.90;101443.81;6290507;22;44779;-89
2021/09/11 07:51:01;;;;;;;;;;;;;;;;;;;;;
2021/09/11 07:53:37;;;;;;;;;34.75;32.00;;;;;19.95;56.03;101511.81;6320530;22;44751;-90
2021/09/11 07:56:04;;;;;;;;;16.25;13.50;;;;;19.94;56.49;101524.44;6288626;22;45262;-92
2021/09/11 07:58:32;;;;;;;;;27.50;27.50;;;;;19.64;57.14;101474.84;6278280;22;44961;-89
2021/09/11 08:01:00;;;;;;;;;22.75;20.50;;;;;19.97;58.05;101523.31;6301699;22;44728;-92
2021/09/11 08:03:28;;;;;;;;;;;;;;;20.01;57.61;101530.16;6275048;22;44866;-92
2021/09/11 08:05:55;;;;;;;;;24.50;24.50;;;;;19.81;58.02;101497.66;6320194;22;45184;-90
2021/09/11 08:08:23;;;;;;;;;33.00;32.25;;;;;19.95;56.18;101514.50;6291900;22;44901;-89
2021/09/11 08:10:50;;;;;;;;;27.25;27.25;;;;;19.95;58.00;101528.81;6269114;22;44766;-89
2021/09/11 08:13:15;;;;;;;;;27.75;27.75;;;;;19.77;58.36;101499.78;6266241;22;44767;-89
2021/09/11 08:15:44;;;;;;;;;45.75;39.75;;;;;19.80;56.09;101497.78;6294706;22;45147;-88
2021/09/11 08:18:10;;;;;;;;;31.00;29.67;;;;;20.09;58.19;101549.28;6271509;22;44698;-91
2021/09/11 08:20:37;;;;;;;;;40.50;36.00;;;;;20.16;56.85;101554.97;6271230;22;44733;-90
2021/09/11 08:23:14;;;;;;;;;30.25;27.25;;;;;20.19;57.69;101560.13;6300364;22;44814;-91
2021/09/11 08:25:43;;;;;;;;;39.25;35.00;;;;;20.00;57.88;101523.06;6306701;22;45230;-90
2021/09/11 08:28:14;;;;;;;;;31.25;30.50;;;;;20.15;57.51;101537.91;6278781;22;44875;-90
2021/09/11 08:30:43;;;;;;;;;32.50;31.50;;;;;20.37;58.35;101570.28;6299563;22;44757;-91
2021/09/11 08:33:12;;;;;;;;;47.25;41.25;;;;;20.31;55.94;101551.91;6277685;22;44865;-87
2021/09/11 08:35:42;;;;;;;;;29.25;28.75;;;;;20.38;57.12;101561.19;6233717;22;45169;-91
2021/09/11 08:38:08;;;;;;;;;14.50;14.50;;;;;20.22;57.86;101535.56;6292708;22;44674;-92
2021/09/11 08:40:36;;;;;;;;;11.00;10.25;;;;;20.30;57.48;101529.44;6239468;22;44770;-93
2021/09/11 08:43:02;;;;;;;;;10.75;9.50;;;;;20.42;57.51;101540.19;6237786;22;44900;-90
2021/09/11 08:45:28;;;;;;;;;17.00;17.00;;;;;20.28;57.45;101523.34;6231915;22;45385;-87
2021/09/11 08:47:53;;;;;;;;;23.75;23.75;;;;;20.31;54.08;101528.47;6232121;22;44824;-89
2021/09/11 08:50:21;;;;;;;;;23.00;23.00;;;;;20.36;56.70;101530.75;6232346;22;44625;-90
2021/09/11 08:52:48;;;;;;;;;28.50;28.50;;;;;20.34;56.47;101517.41;6257297;22;44861;-88
2021/09/11 08:55:14;;;;;;;;;32.25;30.50;;;;;20.71;54.93;101567.28;6236501;22;45680;-87
2021/09/11 08:57:40;;;;;;;;;26.75;26.75;;;;;20.57;54.70;101541.50;6264581;22;44974;-90
2021/09/11 09:00:47;;;;;;;;;32.00;31.00;;;;;20.40;53.33;101516.00;6302008;22;44788;-94
2021/09/11 09:03:35;;;;;;;;;18.00;18.00;;;;;20.58;52.21;101562.13;6274571;22;44846;-88
2021/09/11 09:27:15;;;;;;;;;47.75;41.25;;;;;20.57;54.60;101568.53;6350628;22;46353;-92
2021/09/11 09:29:46;;;;;;;;;43.50;36.75;;;;;20.42;52.96;101522.13;6278871;22;44604;-93
2021/09/11 09:32:12;;;;;;;;;34.75;33.00;;;;;20.25;53.05;101489.38;6319806;22;44745;-90
2021/09/11 09:34:38;;;;;;;;;42.75;36.75;;;;;20.33;52.44;101509.44;6295985;22;44791;-92
2021/09/11 09:37:10;;;;;;;;;34.75;32.25;;;;;20.44;54.10;101524.69;6322905;22;45348;-92
2021/09/11 09:39:55;;;;;;;;;32.75;31.75;;;;;20.26;53.14;101484.81;6300613;22;44857;-92
2021/09/11 09:42:27;;;;;;;;;33.25;32.25;;;;;20.61;53.41;101518.63;6275840;22;44733;-92
2021/09/11 09:44:55;;;;;;;;;28.25;25.25;;;;;20.64;54.41;101512.09;6289178;22;44776;-90
2021/09/11 09:47:25;;;;;;;;;37.00;34.00;;;;;20.74;54.55;101504.84;6285453;22;45094;-91
2021/09/11 09:50:21;;;;;;;;;;;;;;;;;;;;;
2021/09/11 09:52:47;;;;;;;;;33.50;32.50;;;;;20.96;53.84;101524.56;6321735;22;67466;-92
2021/09/11 09:55:13;;;;;;;;;30.25;30.25;;;;;20.96;52.98;101519.16;6294497;22;44912;-90
2021/09/11 09:57:38;;;;;;;;;22.50;22.50;;;;;20.90;50.26;101515.16;6276967;22;45175;-89
2021/09/11 10:00:05;;;;;;;;;28.75;28.75;;;;;21.15;51.76;101545.34;6261725;22;44743;-88
2021/09/11 10:02:34;;;;;;;;;26.25;25.00;;;;;21.11;52.80;101538.50;6291188;22;44752;-91
2021/09/11 10:05:01;;;;;;;;;33.75;32.75;;;;;20.97;52.51;101507.34;6307391;22;44833;-93
2021/09/11 10:07:27;;;;;;;;;44.25;37.50;;;;;20.91;50.53;101489.84;6274795;22;45435;-90
2021/09/11 10:12:47;;;;;;;;;;;;;;;;;;;;;
2021/09/11 10:15:27;;;;;;;;;28.50;28.50;;;;;21.09;51.47;101526.97;6256702;22;69298;-90
2021/09/11 10:17:53;;;;;;;;;28.75;28.00;;;;;21.06;49.57;101546.19;6204006;22;45426;-90
2021/09/11 10:49:05;;;;;;;;;13.20;13.20;;;;;22.46;51.18;101540.41;6322844;22;46011;-85
2021/09/11 10:51:33;;;;;;;;;4.40;4.40;;;;;22.65;51.03;101533.22;6278706;22;45555;-93
2021/09/11 10:54:02;;;;;;;;;13.40;11.60;;;;;22.69;52.15;101519.22;6278041;22;44753;-92
2021/09/11 10:56:46;;;;;;;;;9.40;8.80;;;;;23.04;51.58;101532.97;6306870;22;44662;-94
2021/09/11 10:59:14;;;;;;;;;28.20;24.40;;;;;23.21;49.73;101533.09;6305390;22;44758;-93
2021/09/11 11:02:35;;;;;;;;;32.40;28.40;;;;;22.78;47.57;101503.03;6336839;22;45154;-94
2021/09/11 11:05:08;;;;;;;;;;;;;;;22.69;48.33;101538.19;6242756;22;44580;-91
2021/09/11 11:07:34;;;;;;;;;5.75;3.50;;;;;22.51;50.06;101520.97;6239268;22;44758;-92
2021/09/11 11:10:01;;;;;;;;;;;;;;;22.63;49.62;101536.06;6240170;22;44928;-92
2021/09/11 11:12:28;;;;;;;;;;;;;;;22.70;50.39;101536.31;6238460;22;45100;-91
2021/09/11 11:15:04;;;;;;;;;15.40;14.00;;;;;22.55;50.60;101506.97;6257152;22;44817;-90
2021/09/11 11:17:30;;;;;;;;;4.60;2.20;;;;;22.60;49.97;101506.56;6284474;22;44630;-92
2021/09/11 11:19:59;;;;;;;;;25.25;25.25;;;;;22.85;50.34;101550.22;6253357;22;44925;-90
2021/09/11 11:22:30;;;;;;;;;23.40;23.20;;;;;22.53;49.23;101464.78;6281876;22;45222;-90
2021/09/11 11:24:56;;;;;;;;;21.75;20.75;;;;;22.86;49.94;101500.41;6259132;22;44711;-90
2021/09/11 11:27:23;;;;;;;;;43.25;37.50;;;;;23.20;50.14;101534.13;6255066;22;44703;-88
2021/09/11 11:29:51;;;;;;;;;28.80;28.80;;;;;23.06;48.49;101463.13;6282343;22;44840;-89
2021/09/11 11:32:47;;;;;;;;;55.75;48.50;;;;;23.45;48.94;101501.81;6286186;22;46766;-94
2021/09/11 11:35:14;;;;;;;;;42.60;37.00;;;;;23.58;49.15;101485.09;6297078;22;44983;-89
2021/09/11 11:37:52;;;;;;;;;63.00;54.60;;;;;23.49;47.38;101486.91;6266088;22;44622;-95
2021/09/11 11:40:18;;;;;;;;;71.83;65.33;;;;;23.44;48.81;101513.66;6281571;22;44736;-90
2021/09/11 11:42:47;;;;;;;;;59.80;52.60;;;;;23.38;48.21;101525.16;6256441;22;45118;-89
2021/09/11 11:45:38;;;;;;;;;53.20;46.20;;;;;23.02;48.87;101486.16;6283270;22;44974;-95
2021/09/11 11:48:14;;;;;;;;;39.00;35.40;;;;;23.15;47.92;101521.00;6241830;22;44762;-90
2021/09/11 11:50:46;;;;;;;;;36.20;33.00;;;;;23.12;48.11;101507.75;6290269;22;44921;-90
2021/09/11 11:53:15;;;;;;;;;59.20;52.00;;;;;23.24;48.89;101494.81;6289615;22;45094;-92
2021/09/11 11:55:44;;;;;;;;;51.00;44.20;;;;;23.18;49.16;101446.63;6261501;22;44719;-89
2021/09/11 11:58:38;;;;;;;;;57.00;49.80;;;;;23.35;47.60;101441.31;6259799;22;44587;-91
2021/09/11 12:01:07;;;;;;;;;67.33;60.50;;;;;23.59;46.17;101459.66;6233926;22;44849;-90
2021/09/11 12:04:02;;;;;;;;;62.50;57.00;;;;;23.83;47.38;101487.94;6287293;22;45195;-89
2021/09/11 12:06:32;;;;;;;;;65.50;60.17;;;;;23.62;47.93;101450.34;6279090;22;44780;-90
2021/09/11 12:09:01;;;;;;;;;54.00;46.40;;;;;23.84;47.40;101481.53;6250872;22;44646;-85
2021/09/11 12:11:27;;;;;;;;;93.17;89.67;;;;;23.76;45.53;101447.03;6278060;22;44675;-87
2021/09/11 12:14:01;;;;;;;;;94.80;93.40;;;;;23.92;45.06;101439.97;6254429;22;45083;-88
2021/09/11 12:16:27;;;;;;;;;97.33;95.33;;;;;24.31;46.80;101499.25;6249770;22;44729;-89
2021/09/11 12:19:13;;;;;;;;;85.50;81.00;;;;;24.21;47.21;101466.81;6255416;22;44704;-90
2021/09/11 12:21:38;;;;;;;;;97.80;97.00;;;;;24.31;44.75;101472.09;6248032;22;44841;-87
2021/09/11 12:24:07;;;;;;;;;96.17;94.67;;;;;24.24;44.19;101475.63;6224723;22;45178;-88
2021/09/11 12:26:45;;;;;;;;;95.00;91.67;;;;;23.88;43.54;101485.63;6251929;22;44781;-91
2021/09/11 12:29:15;;;;;;;;;71.20;65.60;;;;;23.81;45.64;101490.00;6256482;22;44873;-90
2021/09/11 12:31:43;;;;;;;;;;;;;;;23.73;45.11;101498.94;6286584;22;44813;-88
2021/09/11 12:34:20;;;;;;;;;48.00;40.40;;;;;23.66;46.60;101489.72;6231098;22;45120;-89
2021/09/11 12:36:55;;;;;;;;;64.83;58.17;;;;;23.88;46.50;101507.34;6290841;22;44697;-93